Time;durP1;ratioP1;P1;durP2;ratioP2;P2;SDS_P1;SDS_P2;PMS_P1;PMS_P2;Temp;Humidity;BMP_temperature;BMP_pressure;BME280_temperature;BME280_humidity;BME280_pressure;Samples;Min_cycle;Max_cycle;Signal;HPM_P1;HPM_P2
2021/03/23 00:03:46;;;;;;;20.90;13.08;;;;;;;4.44;68.40;100644.95;2868190;83;21200;-63
2021/03/23 00:07:49;;;;;;;23.35;13.38;;;;;;;4.39;68.29;100643.86;2868651;83;21177;-61
2021/03/23 00:11:52;;;;;;;20.65;11.73;;;;;;;4.40;68.43;100645.56;2868077;83;21164;-61
2021/03/23 00:15:55;;;;;;;23.07;12.80;;;;;;;4.38;68.50;100646.55;2868379;83;21161;-61
2021/03/23 00:19:58;;;;;;;17.55;10.35;;;;;;;4.35;68.62;100637.05;2868269;83;21168;-62
2021/03/23 00:24:01;;;;;;;20.50;11.78;;;;;;;4.34;68.77;100644.56;2868121;83;21188;-62
2021/03/23 00:28:07;;;;;;;29.50;14.83;;;;;;;4.34;69.05;100633.16;2868387;83;21173;-62
2021/03/23 00:32:10;;;;;;;22.37;11.97;;;;;;;4.29;69.07;100631.62;2868668;82;21559;-62
2021/03/23 00:36:18;;;;;;;19.67;12.40;;;;;;;4.18;69.36;100631.28;2868468;83;21165;-63
2021/03/23 00:40:29;;;;;;;22.02;13.05;;;;;;;4.05;69.75;100628.41;2868294;83;21173;-62
2021/03/23 00:44:33;;;;;;;19.52;11.25;;;;;;;3.98;69.98;100629.17;2868017;83;21152;-63
2021/03/23 00:48:36;;;;;;;19.27;11.68;;;;;;;3.97;70.19;100626.63;2868011;82;21161;-61
2021/03/23 00:52:40;;;;;;;18.92;12.37;;;;;;;3.92;70.33;100636.06;2868100;82;21181;-62
2021/03/23 00:56:43;;;;;;;17.65;12.90;;;;;;;3.97;70.37;100637.16;2868280;82;21180;-62
2021/03/23 01:00:47;;;;;;;20.32;14.18;;;;;;;4.00;70.39;100639.64;2868043;83;21153;-62
2021/03/23 01:04:50;;;;;;;17.35;11.53;;;;;;;4.05;70.53;100637.63;2868198;83;21185;-60
2021/03/23 01:08:53;;;;;;;17.77;10.08;;;;;;;4.08;70.64;100636.16;2868162;82;21769;-61
2021/03/23 01:12:57;;;;;;;22.73;9.30;;;;;;;4.12;70.79;100637.70;2868237;83;21192;-61
2021/03/23 01:16:59;;;;;;;19.70;10.10;;;;;;;4.12;70.82;100640.33;2820453;84;21157;-61
2021/03/23 01:21:04;;;;;;;14.87;10.63;;;;;;;4.14;70.75;100635.88;2868394;83;21192;-63
2021/03/23 01:25:09;;;;;;;16.75;8.00;;;;;;;4.16;70.73;100637.09;2868082;83;21596;-62
2021/03/23 01:29:12;;;;;;;19.42;9.95;;;;;;;4.14;70.59;100635.88;2820208;83;21165;-61
2021/03/23 01:33:15;;;;;;;14.03;8.75;;;;;;;4.17;70.41;100636.16;2820228;83;21153;-62
2021/03/23 01:37:19;;;;;;;20.40;11.57;;;;;;;4.12;70.49;100627.17;2820483;83;21169;-61
2021/03/23 01:41:22;;;;;;;12.03;6.87;;;;;;;4.10;70.66;100626.39;2820108;84;21623;-61
2021/03/23 01:45:32;;;;;;;19.90;8.03;;;;;;;4.09;70.80;100627.80;2801389;84;30482;-62
2021/03/23 01:49:42;;;;;;;17.02;7.37;;;;;;;4.08;70.95;100631.37;2834633;83;21169;-62
2021/03/23 01:53:48;;;;;;;12.13;8.08;;;;;;;4.07;71.08;100623.92;2930220;81;21199;-62
2021/03/23 01:57:52;;;;;;;;;;;;;;;4.04;71.26;100617.97;2855021;83;21189;-62
2021/03/23 02:01:59;;;;;;;18.00;9.10;;;;;;;4.02;71.37;100623.75;2868792;83;20116;-61
2021/03/23 02:06:03;;;;;;;16.02;8.85;;;;;;;3.94;71.56;100630.25;2854896;83;21153;-61
2021/03/23 02:10:07;;;;;;;14.35;10.00;;;;;;;3.82;71.89;100629.07;2930168;81;21147;-61
2021/03/23 02:14:11;;;;;;;15.28;9.80;;;;;;;3.73;72.26;100634.76;2904404;81;21149;-61
2021/03/23 02:18:21;;;;;;;16.73;8.03;;;;;;;3.57;72.65;100632.88;2930320;81;21170;-62
2021/03/23 02:22:32;;;;;;;22.27;10.88;;;;;;;3.37;73.45;100640.37;2852218;83;21169;-62
2021/03/23 02:26:36;;;;;;;19.37;9.90;;;;;;;3.22;73.87;100637.98;2929745;81;21133;-62
2021/03/23 02:30:42;;;;;;;20.72;9.38;;;;;;;3.13;74.49;100635.76;2852034;83;21173;-60
2021/03/23 02:34:46;;;;;;;26.35;10.55;;;;;;;3.00;75.16;100635.45;2930286;81;21579;-61
2021/03/23 02:38:50;;;;;;;18.23;10.03;;;;;;;2.95;75.38;100629.12;2904739;81;21125;-60
2021/03/23 02:42:53;;;;;;;19.35;8.40;;;;;;;2.94;75.81;100634.43;2904297;81;21599;-61
2021/03/23 02:46:55;;;;;;;17.65;9.23;;;;;;;2.94;76.24;100640.52;2930489;81;21087;-61
2021/03/23 02:50:59;;;;;;;20.27;9.98;;;;;;;2.98;76.77;100642.12;2852209;83;21185;-62
2021/03/23 02:55:05;;;;;;;12.75;9.15;;;;;;;3.11;77.01;100633.66;2930424;81;21146;-62
2021/03/23 02:59:07;;;;;;;15.20;8.37;;;;;;;3.31;76.85;100635.84;2852906;83;21138;-61
2021/03/23 03:03:12;;;;;;;14.43;7.72;;;;;;;3.50;76.60;100635.39;2930344;81;21118;-62
2021/03/23 03:07:16;;;;;;;10.85;8.33;;;;;;;3.69;76.25;100630.58;2850388;83;21603;-62
2021/03/23 03:11:19;;;;;;;18.52;7.53;;;;;;;3.78;75.97;100624.89;2930558;81;21157;-61
2021/03/23 03:15:22;;;;;;;14.50;8.58;;;;;;;3.80;75.81;100623.48;2852339;83;21169;-62
2021/03/23 03:19:25;;;;;;;18.62;5.92;;;;;;;3.85;75.70;100627.60;2930528;81;21146;-61
2021/03/23 03:23:29;;;;;;;14.98;7.55;;;;;;;3.84;75.93;100631.16;2852572;83;21173;-62
2021/03/23 03:27:33;;;;;;;19.65;8.48;;;;;;;3.83;75.84;100630.77;2930028;81;21624;-61
2021/03/23 03:31:36;;;;;;;14.58;8.23;;;;;;;3.84;75.70;100633.80;2852220;83;21160;-61
2021/03/23 03:35:42;;;;;;;13.10;7.30;;;;;;;3.90;75.89;100614.67;2930529;81;21149;-62
2021/03/23 03:39:45;;;;;;;11.97;6.42;;;;;;;3.91;76.10;100614.61;2852438;83;21138;-62
2021/03/23 03:43:48;;;;;;;12.50;6.55;;;;;;;3.98;75.86;100619.95;2936587;80;21121;-62
2021/03/23 03:47:56;;;;;;;14.55;7.53;;;;;;;3.98;76.19;100612.54;2942601;80;21181;-62
2021/03/23 03:51:59;;;;;;;31.77;10.95;;;;;;;3.97;76.45;100621.36;2934049;80;21153;-62
2021/03/23 03:56:02;;;;;;;11.68;7.78;;;;;;;3.97;76.83;100616.09;2906760;81;21130;-62
2021/03/23 04:00:07;;;;;;;16.60;7.67;;;;;;;3.97;77.27;100621.36;2932694;80;21142;-63
2021/03/23 04:04:10;;;;;;;13.48;6.95;;;;;;;3.99;77.50;100619.03;2932634;80;21162;-62
2021/03/23 04:08:19;;;;;;;12.70;7.65;;;;;;;4.13;77.39;100617.05;2932560;80;21150;-61
2021/03/23 04:12:22;;;;;;;34.20;11.40;;;;;;;4.31;77.22;100617.03;2932673;80;21619;-62
2021/03/23 04:16:25;;;;;;;19.48;9.10;;;;;;;4.36;76.77;100616.36;2906757;81;21126;-66
2021/03/23 04:20:29;;;;;;;13.75;8.18;;;;;;;4.42;76.66;100621.76;2877838;80;21130;-67
2021/03/23 04:24:32;;;;;;;13.88;6.75;;;;;;;4.34;76.65;100624.81;2841243;83;21142;-67
2021/03/23 04:28:35;;;;;;;15.23;7.28;;;;;;;4.30;76.92;100640.35;2841531;83;21178;-67
2021/03/23 04:32:39;;;;;;;14.83;7.10;;;;;;;4.23;77.37;100638.52;2854765;82;21192;-68
2021/03/23 04:36:44;;;;;;;12.07;8.78;;;;;;;4.17;78.12;100636.64;2841395;83;21193;-67
2021/03/23 04:40:47;;;;;;;11.78;7.85;;;;;;;4.17;78.57;100633.53;2854548;83;21157;-67
2021/03/23 04:44:50;;;;;;;14.43;7.40;;;;;;;4.25;78.61;100631.84;2841016;83;21177;-67
2021/03/23 04:48:54;;;;;;;14.33;7.78;;;;;;;4.36;78.47;100637.44;2841279;83;21205;-67
2021/03/23 04:52:57;;;;;;;16.77;8.00;;;;;;;4.45;78.55;100662.46;2854370;82;21126;-66
2021/03/23 04:56:59;;;;;;;12.03;8.28;;;;;;;4.51;78.56;100661.27;2841614;83;21157;-67
2021/03/23 05:01:02;;;;;;;13.43;8.08;;;;;;;4.55;78.42;100664.17;2854424;82;21154;-67
2021/03/23 05:05:09;;;;;;;14.45;7.80;;;;;;;4.63;78.13;100668.57;2841317;83;21161;-64
2021/03/23 05:09:13;;;;;;;27.25;9.33;;;;;;;4.69;77.94;100667.41;2854902;82;21166;-67
2021/03/23 05:13:16;;;;;;;19.73;8.73;;;;;;;4.67;78.14;100673.23;2841438;83;21185;-65
2021/03/23 05:17:19;;;;;;;15.25;7.83;;;;;;;4.67;78.28;100679.81;2854404;82;21157;-65
2021/03/23 05:21:24;;;;;;;14.80;8.08;;;;;;;4.64;78.60;100683.93;2840662;83;21166;-70
2021/03/23 05:31:24;;;;;;;18.98;7.60;;;;;;;4.62;79.26;100681.36;2841030;83;21165;-66
2021/03/23 05:35:27;;;;;;;16.52;8.83;;;;;;;4.66;79.34;100691.29;2854538;82;21170;-67
2021/03/23 05:39:30;;;;;;;10.70;6.78;;;;;;;4.73;79.37;100689.20;2840927;83;22128;-66
2021/03/23 05:44:06;;;;;;;17.05;8.43;;;;;;;4.80;79.25;100690.09;2855000;82;21181;-66
2021/03/23 05:48:33;;;;;;;17.62;9.05;;;;;;;4.85;79.26;100694.69;2820844;83;21604;-66
2021/03/23 05:53:04;;;;;;;22.20;10.30;;;;;;;4.96;79.29;100692.81;2848622;83;21173;-65
2021/03/23 05:57:25;;;;;;;16.93;9.88;;;;;;;5.05;79.22;100694.58;2850254;83;21734;-66
2021/03/23 06:01:33;;;;;;;18.60;9.50;;;;;;;5.12;79.25;100704.73;2849995;83;21650;-66
2021/03/23 06:05:50;;;;;;;18.30;7.70;;;;;;;5.21;79.26;100703.39;2849833;83;21158;-67
2021/03/23 06:09:53;;;;;;;16.40;9.27;;;;;;;5.27;79.53;100706.18;2850374;83;21173;-66
2021/03/23 06:14:30;;;;;;;13.18;8.30;;;;;;;5.31;79.64;100712.98;2850036;83;21652;-67
2021/03/23 06:18:59;;;;;;;;;;;;;;;5.43;79.71;100707.52;2852362;83;21205;-67
2021/03/23 06:23:44;;;;;;;17.05;9.60;;;;;;;5.53;79.49;100715.34;2850258;82;20179;-67
2021/03/23 06:27:55;;;;;;;14.45;8.60;;;;;;;5.66;79.47;100726.54;2863711;82;21572;-66
2021/03/23 06:32:32;;;;;;;13.55;10.68;;;;;;;5.74;79.68;100726.99;2850350;83;21181;-66
2021/03/23 06:36:36;;;;;;;21.62;10.53;;;;;;;5.79;79.93;100733.31;2850746;83;21643;-66
2021/03/23 06:40:39;;;;;;;23.27;8.48;;;;;;;5.76;80.23;100730.84;2850428;82;21559;-66
2021/03/23 06:44:42;;;;;;;13.25;7.08;;;;;;;5.77;80.74;100733.42;2850549;82;21134;-67
2021/03/23 06:49:08;;;;;;;15.65;10.15;;;;;;;5.80;80.87;100739.84;2863835;82;21150;-66
2021/03/23 06:53:21;;;;;;;11.73;7.37;;;;;;;5.84;80.99;100745.34;2816940;84;21169;-66
2021/03/23 06:57:26;;;;;;;16.23;8.10;;;;;;;5.82;81.10;100741.94;2867932;83;21182;-65
2021/03/23 07:01:41;;;;;;;15.07;9.43;;;;;;;5.80;81.19;100747.77;2868478;83;21177;-67
2021/03/23 07:05:45;;;;;;;18.42;10.58;;;;;;;5.81;81.76;100741.55;2867571;83;21150;-65
2021/03/23 07:09:58;;;;;;;11.63;7.40;;;;;;;5.84;82.18;100735.26;2819930;84;21618;-66
2021/03/23 07:14:06;;;;;;;16.23;8.58;;;;;;;5.85;82.73;100747.52;2867694;83;21197;-66
2021/03/23 07:18:20;;;;;;;13.78;9.85;;;;;;;5.89;83.42;100756.11;2863582;82;21126;-66
2021/03/23 07:22:55;;;;;;;14.83;8.05;;;;;;;5.74;84.16;100765.72;2867830;83;21177;-66
2021/03/23 07:27:05;;;;;;;16.85;10.08;;;;;;;5.83;84.85;100765.23;2868295;83;21627;-66
2021/03/23 07:31:32;;;;;;;18.02;8.50;;;;;;;5.89;84.21;100774.59;2868376;83;21168;-66
2021/03/23 07:35:40;;;;;;;13.43;9.70;;;;;;;5.93;84.21;100777.47;2853837;83;21177;-66
2021/03/23 07:39:57;;;;;;;14.80;9.10;;;;;;;5.95;84.92;100776.44;2843187;83;21145;-66
2021/03/23 07:44:39;;;;;;;20.05;10.28;;;;;;;5.96;84.91;100772.02;2868281;83;21603;-67
2021/03/23 07:49:31;;;;;;;18.65;9.65;;;;;;;5.97;85.38;100776.36;2892434;81;21634;-66
2021/03/23 07:53:42;;;;;;;18.35;9.00;;;;;;;5.97;85.59;100775.87;2848416;83;21639;-65
2021/03/23 07:58:23;;;;;;;17.87;11.12;;;;;;;6.02;85.67;100778.80;2799661;84;21201;-65
2021/03/23 08:03:11;;;;;;;23.10;12.63;;;;;;;6.05;85.92;100782.58;2826116;84;21197;-66
2021/03/23 08:07:33;;;;;;;15.65;11.63;;;;;;;6.03;86.26;100782.65;2825936;84;21682;-66
2021/03/23 08:12:00;;;;;;;15.63;9.08;;;;;;;6.08;86.88;100785.05;2825738;84;21177;-64
2021/03/23 08:16:47;;;;;;;19.70;11.03;;;;;;;6.24;87.52;100783.72;2877098;81;21122;-66
2021/03/23 08:21:02;;;;;;;19.90;10.53;;;;;;;6.30;87.11;100787.36;2902223;82;21153;-66
2021/03/23 08:25:47;;;;;;;20.12;12.05;;;;;;;6.42;87.16;100777.41;2902587;82;21575;-65
2021/03/23 08:30:28;;;;;;;21.10;14.35;;;;;;;6.45;87.06;100782.13;2902138;82;21717;-65
2021/03/23 08:34:59;;;;;;;25.82;13.43;;;;;;;6.60;87.08;100775.14;2902271;82;21631;-65
2021/03/23 08:39:42;;;;;;;14.93;12.15;;;;;;;6.67;86.74;100782.60;2902515;82;21615;-67
2021/03/23 08:43:48;;;;;;;23.38;14.03;;;;;;;6.73;86.20;100785.86;2902624;82;21622;-65
2021/03/23 08:48:25;;;;;;;14.23;11.35;;;;;;;6.86;86.48;100791.66;2902316;82;21308;-65
2021/03/23 08:52:38;;;;;;;15.20;12.65;;;;;;;6.95;86.06;100803.50;2896816;82;21137;-65
2021/03/23 08:56:54;;;;;;;12.07;9.43;;;;;;;7.06;85.89;100802.00;2892979;82;21142;-66
2021/03/23 09:01:01;;;;;;;14.03;11.08;;;;;;;7.04;84.84;100804.75;2907087;81;21129;-65
2021/03/23 09:05:09;;;;;;;18.32;11.83;;;;;;;7.02;85.23;100817.67;2893032;82;21138;-66
2021/03/23 09:09:30;;;;;;;18.95;11.10;;;;;;;7.11;85.09;100813.19;2886798;82;21611;-65
2021/03/23 09:13:41;;;;;;;14.95;9.25;;;;;;;7.29;85.76;100812.55;2892900;82;21150;-68
2021/03/23 09:18:06;;;;;;;13.98;11.03;;;;;;;7.42;84.98;100811.34;2892825;82;21190;-67
2021/03/23 09:22:29;;;;;;;14.45;10.03;;;;;;;7.51;85.13;100813.91;2890901;82;21165;-66
2021/03/23 09:26:43;;;;;;;13.60;10.35;;;;;;;7.66;84.84;100818.73;2893066;82;21162;-66
2021/03/23 09:30:50;;;;;;;14.65;10.53;;;;;;;7.83;84.39;100815.06;2893077;82;22363;-66
2021/03/23 09:35:22;;;;;;;18.82;11.78;;;;;;;7.84;84.64;100818.09;2893614;82;21718;-66
2021/03/23 09:39:29;;;;;;;7.55;5.67;;;;;;;7.85;84.75;100811.35;2892510;82;21162;-66
2021/03/23 09:43:38;;;;;;;20.90;11.22;;;;;;;7.88;84.04;100824.89;2892988;82;21166;-65
2021/03/23 09:47:56;;;;;;;14.28;9.48;;;;;;;7.85;83.75;100823.76;2893218;82;21141;-66
2021/03/23 09:52:08;;;;;;;11.05;9.43;;;;;;;7.89;84.08;100824.44;2892803;82;21153;-65
2021/03/23 09:56:21;;;;;;;10.13;7.30;;;;;;;7.96;84.00;100825.28;2906709;81;21130;-66
2021/03/23 10:00:28;;;;;;;17.70;11.93;;;;;;;8.07;83.83;100825.07;2893280;82;21177;-65
2021/03/23 10:04:37;;;;;;;13.53;7.83;;;;;;;8.31;83.67;100820.48;2893288;82;21177;-67
2021/03/23 10:09:05;;;;;;;11.57;9.80;;;;;;;8.38;82.21;100824.46;2893307;82;21134;-65
2021/03/23 10:13:23;;;;;;;28.95;17.60;;;;;;;8.47;82.41;100821.20;2906869;81;21141;-65
2021/03/23 10:17:29;;;;;;;22.65;12.98;;;;;;;8.30;81.36;100826.27;2854630;83;21105;-66
2021/03/23 10:21:35;;;;;;;15.18;12.58;;;;;;;8.24;81.69;100829.29;2892782;82;21642;-65
2021/03/23 10:25:43;;;;;;;8.90;7.25;;;;;;;8.19;82.35;100830.06;2892837;82;21157;-65
2021/03/23 10:29:57;;;;;;;7.17;5.12;;;;;;;8.26;82.42;100831.40;2893494;82;21146;-65
2021/03/23 10:34:11;;;;;;;7.42;6.35;;;;;;;8.37;81.96;100827.58;2892803;81;21576;-67
2021/03/23 10:38:28;;;;;;;10.95;7.22;;;;;;;8.42;81.77;100830.77;2893095;82;21125;-67
2021/03/23 10:42:36;;;;;;;25.00;16.10;;;;;;;8.60;81.67;100831.89;2891947;82;21624;-67
2021/03/23 10:46:47;;;;;;;30.57;20.27;;;;;;;8.74;80.91;100826.17;2893036;82;21181;-67
2021/03/23 10:51:30;;;;;;;30.25;15.53;;;;;;;8.84;81.04;100825.92;2892779;82;21381;-66
2021/03/23 10:55:41;;;;;;;16.40;9.53;;;;;;;8.99;80.28;100815.63;2893143;82;21186;-66
2021/03/23 10:59:44;;;;;;;20.75;12.05;;;;;;;9.13;78.26;100818.67;2906728;81;21137;-67
2021/03/23 11:03:52;;;;;;;14.30;8.28;;;;;;;9.38;78.64;100814.84;2892950;82;21694;-67
2021/03/23 11:07:59;;;;;;;;;;;;;;;9.45;78.41;100814.81;2909748;81;21160;-66
2021/03/23 11:12:05;;;;;;;12.85;7.67;;;;;;;9.46;77.76;100819.63;2907022;81;20193;-66
2021/03/23 11:16:14;;;;;;;16.65;11.48;;;;;;;9.33;76.97;100824.94;2893624;82;21591;-67
2021/03/23 11:24:47;;;;;;;7.67;6.17;;;;;;;9.13;77.57;100823.98;3065259;77;22778;-67
2021/03/23 11:28:56;;;;;;;13.98;8.75;;;;;;;9.14;77.86;100820.41;3019437;78;21619;-66
2021/03/23 11:32:59;;;;;;;11.25;9.65;;;;;;;9.23;77.60;100822.89;3020235;78;21308;-66
2021/03/23 11:37:02;;;;;;;19.42;9.90;;;;;;;9.39;76.63;100825.83;3019501;78;22255;-66
2021/03/23 11:41:20;;;;;;;6.97;5.72;;;;;;;9.56;75.93;100831.33;3019421;78;21634;-67
2021/03/23 11:45:36;;;;;;;6.22;5.33;;;;;;;9.66;75.10;100826.23;2996923;77;22936;-67
2021/03/23 11:49:45;;;;;;;5.55;4.47;;;;;;;9.55;74.83;100826.48;2951527;80;21153;-66
2021/03/23 11:53:49;;;;;;;12.55;6.17;;;;;;;9.44;75.05;100831.70;2950881;80;21143;-66
2021/03/23 11:57:53;;;;;;;14.75;6.67;;;;;;;9.20;74.71;100823.59;2912692;80;22147;-67
2021/03/23 12:01:58;;;;;;;6.92;4.78;;;;;;;9.29;75.06;100825.14;2886499;80;22244;-65
2021/03/23 12:06:03;;;;;;;9.63;4.72;;;;;;;9.38;75.20;100826.79;2855079;82;21152;-66
2021/03/23 12:10:20;;;;;;;17.62;10.10;;;;;;;9.43;75.67;100819.34;2854688;82;21160;-67
2021/03/23 12:15:14;;;;;;;16.60;9.78;;;;;;;9.57;74.86;100816.60;2854777;83;21180;-66
2021/03/23 12:19:21;;;;;;;15.40;11.68;;;;;;;9.66;73.44;100817.77;2875513;80;21629;-67
2021/03/23 12:23:24;;;;;;;12.23;7.55;;;;;;;9.92;74.28;100814.25;2904881;82;21187;-66
2021/03/23 12:27:29;;;;;;;7.75;5.10;;;;;;;10.06;71.96;100807.95;2905739;82;21088;-67
2021/03/23 12:31:32;;;;;;;9.63;5.70;;;;;;;10.08;71.84;100817.52;2904982;81;21164;-66
2021/03/23 12:35:38;;;;;;;7.53;6.12;;;;;;;9.93;71.88;100800.00;2904762;82;21558;-66
2021/03/23 12:39:41;;;;;;;13.25;10.03;;;;;;;9.83;71.89;100818.41;2904987;81;21159;-67
2021/03/23 12:43:49;;;;;;;6.85;4.90;;;;;;;9.81;73.43;100818.50;2913997;80;21593;-66
2021/03/23 12:47:49;;;;;;;9.03;7.45;;;;;;;9.77;74.81;100816.19;2923672;81;21152;-66
2021/03/23 12:51:59;;;;;;;13.65;7.35;;;;;;;9.82;75.44;100822.02;2923991;81;21167;-67
2021/03/23 12:56:03;;;;;;;10.23;7.30;;;;;;;9.77;76.07;100818.34;2923354;81;21151;-67
2021/03/23 13:00:21;;;;;;;10.13;6.28;;;;;;;9.79;75.95;100823.56;2923166;81;21171;-67
2021/03/23 13:04:27;;;;;;;7.30;3.95;;;;;;;9.82;73.45;100814.88;2922877;80;21123;-67
2021/03/23 13:08:37;;;;;;;7.12;4.53;;;;;;;9.85;73.51;100816.02;2919673;81;21152;-67
2021/03/23 13:12:41;;;;;;;5.47;3.37;;;;;;;9.91;72.25;100812.55;2923239;81;21111;-65
2021/03/23 13:16:43;;;;;;;6.55;4.25;;;;;;;9.81;69.99;100813.67;2923213;81;21433;-66
2021/03/23 13:20:47;;;;;;;2.85;2.60;;;;;;;9.74;70.94;100814.58;2922948;81;21183;-66
2021/03/23 13:24:52;;;;;;;5.67;3.58;;;;;;;9.70;71.64;100807.79;2923759;80;21151;-66
2021/03/23 13:29:06;;;;;;;5.28;4.78;;;;;;;9.68;71.63;100811.03;2923309;81;21172;-67
2021/03/23 13:33:13;;;;;;;4.78;4.20;;;;;;;9.71;71.79;100813.47;2923094;81;21173;-67
2021/03/23 13:37:30;;;;;;;5.58;5.00;;;;;;;9.68;72.95;100823.82;2923186;81;22249;-67
2021/03/23 13:41:33;;;;;;;8.58;4.78;;;;;;;9.58;74.12;100806.34;2910508;81;21108;-62
2021/03/23 13:45:54;;;;;;;5.35;4.05;;;;;;;9.58;75.10;100814.31;2853302;82;21129;-64
2021/03/23 13:49:57;;;;;;;5.30;4.78;;;;;;;9.64;75.20;100813.54;2849877;83;21583;-62
2021/03/23 13:54:01;;;;;;;5.83;5.03;;;;;;;9.70;75.04;100827.72;2849938;83;21129;-63
2021/03/23 13:58:04;;;;;;;6.55;4.10;;;;;;;9.68;74.54;100828.30;2851957;82;21670;-63
2021/03/23 14:02:13;;;;;;;7.90;6.00;;;;;;;9.74;75.22;100829.69;2849417;82;21709;-63
2021/03/23 14:06:22;;;;;;;8.48;6.67;;;;;;;9.78;74.06;100814.73;2849209;83;21113;-62
2021/03/23 14:10:28;;;;;;;7.60;5.05;;;;;;;9.82;74.44;100818.03;2849383;82;21181;-63
2021/03/23 14:14:32;;;;;;;9.43;5.35;;;;;;;9.90;74.60;100826.80;2887110;80;21161;-62
2021/03/23 14:18:35;;;;;;;7.33;5.40;;;;;;;9.98;74.03;100825.76;2886071;80;21127;-62
2021/03/23 14:22:39;;;;;;;8.45;5.53;;;;;;;9.96;72.94;100819.25;2820249;84;21618;-63
2021/03/23 14:26:43;;;;;;;9.23;7.83;;;;;;;9.94;73.64;100814.98;2820319;84;21151;-62
2021/03/23 14:30:47;;;;;;;10.18;6.97;;;;;;;9.97;73.80;100810.77;2819949;84;21139;-66
2021/03/23 14:34:53;;;;;;;8.88;5.97;;;;;;;9.92;73.67;100818.23;2819995;84;21162;-63
2021/03/23 14:39:07;;;;;;;8.75;5.50;;;;;;;9.86;73.92;100824.83;2820070;84;21203;-62
2021/03/23 14:43:14;;;;;;;11.45;7.62;;;;;;;9.83;73.79;100812.63;2820670;82;21560;-63
2021/03/23 14:47:22;;;;;;;7.83;5.15;;;;;;;9.80;73.80;100818.12;2824630;83;21171;-63
2021/03/23 14:51:28;;;;;;;8.35;6.95;;;;;;;9.74;72.58;100816.41;2808453;84;21174;-63
2021/03/23 14:55:33;;;;;;;10.25;7.50;;;;;;;9.69;71.97;100827.34;2824473;84;21601;-63
2021/03/23 14:59:36;;;;;;;8.67;6.33;;;;;;;9.69;72.12;100825.52;2824440;83;21142;-63
2021/03/23 15:03:40;;;;;;;9.30;6.47;;;;;;;9.64;72.33;100817.03;2890534;80;21573;-62
2021/03/23 15:07:45;;;;;;;14.80;7.55;;;;;;;9.57;72.10;100813.94;2897796;82;21108;-62
2021/03/23 15:11:48;;;;;;;9.93;7.85;;;;;;;9.44;71.53;100822.41;2847843;82;21195;-62
2021/03/23 15:15:53;;;;;;;35.30;26.25;;;;;;;9.33;71.98;100828.91;2817226;84;21148;-64
2021/03/23 15:19:56;;;;;;;19.70;12.70;;;;;;;9.24;72.38;100825.95;2830775;84;21197;-62
2021/03/23 15:24:01;;;;;;;16.25;9.85;;;;;;;9.20;72.39;100837.70;2831945;84;21145;-62
2021/03/23 15:28:05;;;;;;;14.47;9.30;;;;;;;9.18;72.63;100836.13;2832053;84;21145;-62
2021/03/23 15:32:09;;;;;;;11.40;7.12;;;;;;;9.10;72.15;100835.30;2831917;84;21160;-62
2021/03/23 15:36:30;;;;;;;6.78;4.83;;;;;;;9.09;72.77;100844.22;2831832;84;21196;-62
2021/03/23 15:41:03;;;;;;;12.75;9.05;;;;;;;9.05;72.68;100838.75;2815686;82;21208;-63
2021/03/23 15:45:21;;;;;;;12.80;7.17;;;;;;;9.00;72.94;100847.84;2830269;84;21701;-62
2021/03/23 15:49:25;;;;;;;9.00;5.83;;;;;;;8.96;72.30;100849.50;2898007;82;21575;-62
2021/03/23 15:57:56;;;;;;;17.07;9.85;;;;;;;8.92;72.32;100858.13;3050996;77;22922;-61
2021/03/23 16:02:08;;;;;;;9.30;6.40;;;;;;;8.87;72.43;100857.59;2971971;79;21084;-62
2021/03/23 16:06:27;;;;;;;9.10;6.22;;;;;;;8.89;73.42;100860.13;2967438;80;21498;-62
2021/03/23 16:10:34;;;;;;;8.75;5.55;;;;;;;8.93;73.67;100861.16;2967678;80;21107;-63
2021/03/23 16:14:39;;;;;;;9.65;5.95;;;;;;;8.94;73.21;100865.51;2967179;80;21093;-64
2021/03/23 16:18:42;;;;;;;8.20;7.03;;;;;;;8.93;73.97;100871.77;2982910;78;21497;-65
2021/03/23 16:22:57;;;;;;;7.80;5.58;;;;;;;8.91;74.15;100877.66;3026205;78;21130;-65
2021/03/23 16:27:29;;;;;;;14.70;10.23;;;;;;;8.85;74.02;100873.59;2985603;78;21113;-65
2021/03/23 16:31:47;;;;;;;7.87;5.55;;;;;;;8.81;74.54;100879.19;3004899;78;21746;-65
2021/03/23 16:35:52;;;;;;;7.83;5.22;;;;;;;8.74;74.07;100878.73;2977743;78;21626;-66
2021/03/23 16:40:01;;;;;;;5.95;4.75;;;;;;;8.70;74.09;100880.75;3017219;78;21097;-66
2021/03/23 16:44:05;;;;;;;10.48;7.33;;;;;;;8.70;73.82;100887.84;3021031;78;21102;-66
2021/03/23 16:48:12;;;;;;;12.60;6.08;;;;;;;8.65;73.33;100886.84;3020691;78;21186;-66
2021/03/23 16:52:17;;;;;;;10.80;7.28;;;;;;;8.63;73.71;100894.02;3020988;78;21113;-66
2021/03/23 16:56:20;;;;;;;11.90;7.03;;;;;;;8.60;73.73;100892.89;3020402;78;21105;-65
2021/03/23 17:00:35;;;;;;;11.50;7.12;;;;;;;8.57;74.16;100890.44;3022224;78;21519;-65
2021/03/23 17:04:41;;;;;;;11.80;8.10;;;;;;;8.56;74.24;100898.02;2919321;80;21180;-66
2021/03/23 17:08:52;;;;;;;9.63;5.70;;;;;;;8.53;74.32;100899.05;2945334;80;21368;-66
2021/03/23 17:13:06;;;;;;;10.55;8.23;;;;;;;8.47;74.62;100910.03;2967779;79;21605;-65
2021/03/23 17:17:12;;;;;;;9.33;8.00;;;;;;;8.46;74.95;100918.09;2856523;81;21173;-65
2021/03/23 17:21:19;;;;;;;16.85;10.28;;;;;;;8.44;74.96;100919.02;2856624;83;21145;-65
2021/03/23 17:25:39;;;;;;;15.30;11.68;;;;;;;8.42;74.48;100921.41;2856506;83;21187;-65
2021/03/23 17:29:42;;;;;;;10.98;8.65;;;;;;;8.40;74.47;100918.83;2856306;83;21177;-66
2021/03/23 17:33:47;;;;;;;12.20;8.95;;;;;;;8.42;74.95;100927.54;2856692;83;21167;-65
2021/03/23 17:38:00;;;;;;;12.07;9.68;;;;;;;8.42;74.80;100930.68;2856409;83;21161;-65
2021/03/23 17:42:13;;;;;;;12.00;9.55;;;;;;;8.42;74.81;100940.80;2852656;83;21170;-66
2021/03/23 17:46:18;;;;;;;19.67;11.93;;;;;;;8.43;74.89;100940.34;2856397;83;21162;-65
2021/03/23 17:50:24;;;;;;;12.82;8.38;;;;;;;8.43;75.03;100947.80;2856529;83;21159;-65
2021/03/23 17:54:39;;;;;;;11.10;7.97;;;;;;;8.46;75.53;100947.26;2856724;83;21112;-66
2021/03/23 17:58:55;;;;;;;10.35;6.33;;;;;;;8.49;75.63;100952.37;2856396;83;21134;-67
2021/03/23 18:03:04;;;;;;;11.35;8.85;;;;;;;8.43;76.20;100957.57;2857967;83;21606;-66
2021/03/23 18:07:16;;;;;;;20.90;13.45;;;;;;;8.37;76.73;100955.31;2858787;83;21166;-66
2021/03/23 18:11:23;;;;;;;15.18;11.28;;;;;;;8.30;77.18;100957.48;2858567;83;21115;-66
2021/03/23 18:15:30;;;;;;;21.62;13.28;;;;;;;8.27;77.40;100964.30;2868775;81;21111;-66
2021/03/23 18:19:44;;;;;;;21.00;15.15;;;;;;;8.24;77.71;100957.84;2877540;81;21103;-65
2021/03/23 18:23:54;;;;;;;24.27;18.23;;;;;;;8.22;77.92;100967.69;2899502;81;21620;-65
2021/03/23 18:28:03;;;;;;;33.65;23.38;;;;;;;8.22;77.75;100972.98;2858545;83;21115;-65
2021/03/23 18:32:12;;;;;;;38.28;22.02;;;;;;;8.22;77.29;100975.17;2858395;83;21135;-65
2021/03/23 18:36:28;;;;;;;22.13;15.18;;;;;;;8.23;77.20;100973.36;2883598;81;21142;-66
2021/03/23 18:40:37;;;;;;;23.38;17.90;;;;;;;8.22;76.98;100969.01;2908208;81;21135;-65
2021/03/23 18:44:41;;;;;;;14.83;9.90;;;;;;;8.27;77.18;100967.79;2908114;81;21146;-65
2021/03/23 18:48:49;;;;;;;11.93;8.75;;;;;;;8.25;76.67;100973.66;2908386;81;21126;-65
2021/03/23 18:53:16;;;;;;;13.75;8.53;;;;;;;8.28;77.01;100980.58;2908286;81;21114;-65
2021/03/23 18:57:24;;;;;;;10.15;6.97;;;;;;;8.26;76.52;100985.13;2811683;84;21180;-65
2021/03/23 19:01:28;;;;;;;10.55;7.35;;;;;;;8.25;76.56;100990.89;2815633;83;21138;-65
2021/03/23 19:05:36;;;;;;;10.65;7.22;;;;;;;8.19;76.40;100991.73;2857252;83;21147;-64
2021/03/23 19:09:39;;;;;;;25.97;14.98;;;;;;;8.18;76.60;100986.92;2857334;83;21153;-65
2021/03/23 19:13:41;;;;;;;34.48;20.05;;;;;;;8.21;76.83;100987.19;2857471;83;21180;-64
2021/03/23 19:17:45;;;;;;;10.43;7.97;;;;;;;8.24;76.82;100986.99;2857520;83;21171;-65
2021/03/23 19:21:48;;;;;;;20.17;10.55;;;;;;;8.26;76.98;100989.11;2857593;83;21163;-62
2021/03/23 19:25:54;;;;;;;15.13;9.55;;;;;;;8.29;77.27;100986.27;2857467;81;21164;-61
2021/03/23 19:29:58;;;;;;;7.12;5.42;;;;;;;8.27;77.16;100989.48;2857362;82;21151;-61
2021/03/23 19:34:01;;;;;;;8.45;5.75;;;;;;;8.22;77.23;100991.54;2853039;82;21207;-60
2021/03/23 19:38:08;;;;;;;6.40;5.42;;;;;;;8.21;77.47;100996.00;2851933;83;21143;-60